• Join FlightAware (Why Join?)
  • Login
  • US Flag 
05:06AM EDT


 

Airport Tracker/Info


-or-


 

Live Flight TrackerFlight Track Log ✈ N1926A ✈ 20-Jun-2013 ✈ KBFM - KMGM

Flight Track Log - Related Links

Times and Time Zones

All times are in EDT time to prevent confusion due to time zone crossing. See the N1926A flight status page for this flight to view local times or setup timezone preferences in your user account.

Time Position Orientation Groundspeed Altitude Reporting Facility
EDT Latitude Longitude Course Direction KTS MPH feet Rate Location/Type
05:51PM 30.7064 -88.0169 36° Northeast 174 200 4,400  Level Houston Center
05:52PM 30.7406 -87.9789 44° Northeast 172 198 6,300 1,800 Climbing Houston Center
05:53PM 30.7789 -87.9392 42° Northeast 181 208 8,200 1,740 Climbing Houston Center
05:54PM 30.8206 -87.9061 34° Northeast 183 211 10,000 1,740 Climbing Houston Center
05:55PM 30.8628 -87.8694 37° Northeast 188 216 11,800 1,440 Climbing Houston Center
05:56PM 30.8965 -87.8112 36° Northeast  Level FlightAware Approximate
05:56PM 30.9111 -87.8167 43° Northeast 197 227 13,000  Level Houston Center
05:57PM 30.9460 -87.7700 36° Northeast  Level FlightAware Approximate
05:57PM 30.9622 -87.7644 41° Northeast 230 265 12,900  Level Houston Center
05:58PM 31.0197 -87.7122 38° Northeast 256 295 12,900  Level Houston Center
06:00PM 31.0792 -87.6644 35° Northeast 262 302 12,900  Level Houston Center
06:01PM 31.1386 -87.6161 35° Northeast 264 304 12,900  Level Houston Center
06:02PM 31.2122 -87.5600 33° Northeast 266 306 12,900  Level Houston Center
06:03PM 31.2667 -87.5028 42° Northeast 266 306 12,900  Level Houston Center
06:04PM 31.3222 -87.4469 41° Northeast 265 305 12,900  Level Houston Center
06:05PM 31.3811 -87.3958 37° Northeast 266 306 12,900  Level Houston Center
06:06PM 31.4478 -87.3583 26° Northeast 265 305 12,900  Level Houston Center
06:07PM 31.5175 -87.2964 37° Northeast 278 320 13,000  Climbing Houston Center
06:08PM 31.5644 -87.2300 50° Northeast 269 310 12,900 -60 Descending Houston Center
06:09PM 31.6158 -87.1700 45° Northeast 262 302 12,900 -60 Level Houston Center
06:10PM 31.6675 -87.1100 45° Northeast 262 302 12,800 -360 Descending Houston Center
06:11PM 31.7289 -87.0444 42° Northeast 266 306 12,200 -480 Descending Atlanta Center
06:12PM 31.7739 -86.9972 42° Northeast 266 306 11,900 -360 Descending Atlanta Center
06:13PM 31.8339 -86.9306 43° Northeast 266 306 11,500 -420 Descending Atlanta Center
06:14PM 31.8875 -86.8714 43° Northeast 266 306 11,100 -420 Descending Atlanta Center
06:15PM 31.9389 -86.8117 45° Northeast 266 306 10,700 -660 Descending Atlanta Center
06:16PM 31.9925 -86.7472 46° Northeast 266 306 9,800 -840 Descending Atlanta Center
06:17PM 32.0458 -86.6875 43° Northeast 266 306 9,100 -420 Descending Atlanta Center
06:18PM 32.1031 -86.6453 32° Northeast 254 292 9,000 -60 Descending Atlanta Center
06:19PM 32.1719 -86.6519 355° North 228 262 9,000 -660 Level Atlanta Center
06:20PM 32.2297 -86.6758 341° North 218 251 7,700 -1,500 Descending Atlanta Center
06:21PM 32.2897 -86.7094 335° Northwest 210 242 6,100 -1,920 Descending Atlanta Center
06:22PM 32.3281 -86.6664 43° Northeast 189 217 3,900 -1,800 Descending Atlanta Center
06:23PM 32.3192 -86.5975 99° East 144 166 2,600 -900 Descending Atlanta Center
06:24PM 32.3139 -86.5456 97° East 149 171 2,200 -420 Descending Atlanta Center
06:26PM 32.2354 -86.4479 40° Northeast  Level FlightAware Approximate
06:33PM 32.3000 -86.3833 40° Northeast  Level FlightAware Approximate
06:34PM 32.3006 -86.3940 40° Northeast  Level Estimated
06:35PM 32.3006 -86.3940 40° Northeast  Level Estimated